Time;durP1;ratioP1;P1;durP2;ratioP2;P2;SDS_P1;SDS_P2;PMS_P1;PMS_P2;Temp;Humidity;BMP_temperature;BMP_pressure;BME280_temperature;BME280_humidity;BME280_pressure;Samples;Min_cycle;Max_cycle;Signal;HPM_P1;HPM_P2
2023/10/24 00:14:31;;;;;;;8.90;3.47;;;;;;;19.49;77.92;100092.59;30975860;28;20050;-77
2023/10/24 00:29:33;;;;;;;4.97;3.40;;;;;;;19.38;79.10;100101.44;30981848;28;20055;-77
2023/10/24 00:44:35;;;;;;;8.00;3.87;;;;;;;19.23;80.46;100079.47;30979765;28;20054;-78
2023/10/24 00:59:39;;;;;;;6.97;3.87;;;;;;;19.19;82.10;100083.66;30979178;28;20081;-77
2023/10/24 01:14:41;;;;;;;6.93;3.97;;;;;;;18.94;83.83;100107.78;30994156;28;20050;-78
2023/10/24 01:29:43;;;;;;;7.33;4.37;;;;;;;18.83;84.64;100106.84;30993264;28;20117;-75
2023/10/24 01:44:45;;;;;;;10.77;4.50;;;;;;;18.97;84.89;100106.84;31001113;28;20054;-79
2023/10/24 01:59:47;;;;;;;7.10;4.43;;;;;;;18.86;86.00;100114.16;31001566;28;20077;-76
2023/10/24 02:14:52;;;;;;;11.00;4.47;;;;;;;18.59;88.80;100126.94;30996697;28;20054;-78
2023/10/24 02:29:54;;;;;;;12.20;4.47;;;;;;;18.28;92.16;100129.31;30997810;28;20058;-76
2023/10/24 02:44:56;;;;;;;9.07;3.73;;;;;;;18.36;92.55;100127.72;30994300;28;20056;-78
2023/10/24 02:59:58;;;;;;;6.97;4.30;;;;;;;18.20;93.99;100133.63;30988559;28;20510;-76
2023/10/24 03:15:00;;;;;;;6.97;4.03;;;;;;;18.05;94.68;100134.38;30986796;28;20120;-78
2023/10/24 03:30:02;;;;;;;8.27;4.17;;;;;;;17.97;95.36;100130.44;30985284;28;20054;-77
2023/10/24 03:45:05;;;;;;;9.87;4.57;;;;;;;17.92;96.76;100128.38;30993972;28;20046;-78
2023/10/24 04:00:08;;;;;;;10.10;5.73;;;;;;;17.95;95.54;100129.41;30977666;28;20046;-77
2023/10/24 04:15:10;;;;;;;6.23;3.57;;;;;;;17.77;97.50;100146.75;30985173;28;20498;-79
2023/10/24 04:30:13;;;;;;;6.00;4.03;;;;;;;17.64;99.02;100159.91;30985289;28;20078;-79
2023/10/24 04:45:17;;;;;;;7.33;3.87;;;;;;;17.68;99.63;100182.50;30995230;28;20142;-77
2023/10/24 05:00:20;;;;;;;13.40;4.43;;;;;;;17.93;99.81;100201.28;31004481;28;20073;-79
2023/10/24 05:15:22;;;;;;;7.27;3.87;;;;;;;18.96;92.08;100231.09;31001320;28;20054;-79
2023/10/24 05:30:25;;;;;;;9.00;4.93;;;;;;;20.15;84.36;100255.28;30995550;28;20050;-75
2023/10/24 05:45:27;;;;;;;7.85;4.13;;;;;;;21.81;76.64;100281.69;31001535;28;20050;-76
2023/10/24 06:00:29;;;;;;;5.95;3.55;;;;;;;23.12;69.33;100295.19;30998856;28;20057;-74
2023/10/24 06:15:37;;;;;;;8.38;4.07;;;;;;;24.07;63.33;100292.47;30993698;28;20505;-74
2023/10/24 06:30:39;;;;;;;8.48;4.50;;;;;;;24.78;60.56;100304.63;30984730;28;20391;-76
2023/10/24 06:45:43;;;;;;;6.65;4.32;;;;;;;25.64;58.21;100298.81;30992463;28;20488;-77
2023/10/24 07:00:49;;;;;;;7.15;3.85;;;;;;;26.37;55.26;100317.63;30981935;28;20054;-76
2023/10/24 07:15:51;;;;;;;8.38;3.25;;;;;;;27.02;53.90;100319.38;30990180;28;20458;-77
2023/10/24 07:30:54;;;;;;;6.18;3.33;;;;;;;27.64;52.41;100324.78;30988868;28;20042;-77
2023/10/24 07:45:56;;;;;;;6.67;3.30;;;;;;;27.13;51.29;100330.38;30984272;28;20089;-75
2023/10/24 08:00:59;;;;;;;11.80;3.63;;;;;;;26.22;53.90;100320.03;30982753;28;20054;-74
2023/10/24 08:53:16;;;;;;;3.70;2.75;;;;;;;28.38;47.47;100297.88;31626944;27;20382;-76
2023/10/24 09:08:18;;;;;;;4.38;2.00;;;;;;;28.31;47.05;100279.75;31594111;28;20127;-78
2023/10/24 09:23:20;;;;;;;3.90;2.00;;;;;;;27.68;45.41;100267.44;31552348;28;20053;-76
2023/10/24 09:38:26;;;;;;;8.87;1.70;;;;;;;25.70;47.76;100268.19;31463231;28;20061;-79
2023/10/24 09:53:29;;;;;;;2.80;1.98;;;;;;;25.96;46.03;100257.31;31383978;28;20122;-78
2023/10/24 10:08:36;;;;;;;2.80;1.20;;;;;;;27.34;43.05;100238.59;31378573;28;20052;-82
2023/10/24 10:23:54;;;;;;;2.05;1.52;;;;;;;28.00;42.19;100236.69;31375601;28;20131;-79
2023/10/24 10:39:00;;;;;;;4.35;2.20;;;;;;;25.23;46.85;100237.72;31461963;28;20059;-81
2023/10/24 10:54:37;;;;;;;3.17;1.98;;;;;;;24.71;47.90;100226.69;31503180;28;20059;-81
2023/10/24 11:09:41;;;;;;;2.92;1.80;;;;;;;26.31;45.23;100219.53;31436456;28;20061;-76
2023/10/24 11:24:47;;;;;;;4.22;2.30;;;;;;;24.75;48.68;100216.81;31426777;28;20095;-76
2023/10/24 11:39:49;;;;;;;5.05;2.85;;;;;;;23.33;51.50;100227.25;31450923;28;20065;-80
2023/10/24 11:54:52;;;;;;;4.28;2.78;;;;;;;23.83;51.62;100217.41;31366309;28;20056;-78
2023/10/24 12:10:08;;;;;;;3.07;2.30;;;;;;;26.11;46.29;100207.59;31452734;28;20060;-78
2023/10/24 12:25:10;;;;;;;3.45;2.10;;;;;;;24.27;49.08;100205.44;31434444;28;20083;-75
2023/10/24 12:40:12;;;;;;;6.28;2.30;;;;;;;23.80;50.07;100208.84;31366577;28;20068;-75
2023/10/24 12:55:15;;;;;;;1.92;1.40;;;;;;;23.48;50.16;100194.50;31379250;28;20441;-77
2023/10/24 13:10:17;;;;;;;4.15;1.95;;;;;;;22.72;50.58;100202.22;31356833;28;20482;-84
2023/10/24 13:25:19;;;;;;;4.90;2.58;;;;;;;22.40;52.67;100182.28;31435363;28;20421;-75
2023/10/24 13:40:22;;;;;;;4.20;2.83;;;;;;;22.06;54.93;100176.59;31447545;28;20079;-78
2023/10/24 13:55:24;;;;;;;8.48;3.78;;;;;;;21.76;56.23;100203.03;31376268;28;20421;-76
2023/10/24 14:10:26;;;;;;;7.65;3.90;;;;;;;21.41;58.51;100219.84;31374113;28;20413;-77
2023/10/24 14:25:28;;;;;;;13.40;4.80;;;;;;;21.19;59.19;100217.66;31475859;28;20045;-84
2023/10/24 14:40:32;;;;;;;7.57;3.90;;;;;;;20.80;59.20;100225.53;31370100;28;20052;-76
2023/10/24 14:55:34;;;;;;;15.07;6.10;;;;;;;20.43;59.48;100209.59;31368797;28;20049;-77
2023/10/24 15:10:38;;;;;;;18.05;7.93;;;;;;;20.41;60.42;100216.81;31376671;28;20114;-77
2023/10/24 15:25:40;;;;;;;21.23;8.93;;;;;;;20.37;61.62;100232.81;31453271;28;20056;-79
2023/10/24 15:40:42;;;;;;;18.85;8.60;;;;;;;20.30;62.22;100247.00;31422401;28;20064;-79
2023/10/24 15:55:54;;;;;;;17.27;8.17;;;;;;;20.13;63.68;100246.00;31364736;28;20056;-78
2023/10/24 16:10:56;;;;;;;24.55;8.00;;;;;;;19.93;64.13;100243.97;31376542;28;20139;-84
2023/10/24 16:26:03;;;;;;;21.63;9.40;;;;;;;19.97;65.15;100226.00;31387219;28;20055;-82
2023/10/24 16:41:05;;;;;;;19.70;10.27;;;;;;;19.86;65.37;100238.84;31381668;28;20064;-84
2023/10/24 16:56:07;;;;;;;20.73;10.13;;;;;;;19.78;66.01;100233.00;31402728;28;20061;-83
2023/10/24 17:11:09;;;;;;;14.93;8.27;;;;;;;19.57;67.61;100239.69;31465623;28;20089;-84
2023/10/24 17:26:14;;;;;;;14.00;7.13;;;;;;;19.28;67.86;100210.13;31498024;28;20146;-82
2023/10/24 17:41:17;;;;;;;14.17;6.87;;;;;;;19.14;68.00;100261.16;31447518;28;20065;-75
2023/10/24 17:56:19;;;;;;;12.47;7.63;;;;;;;19.00;68.65;100231.66;31376476;28;20052;-76
2023/10/24 18:11:22;;;;;;;19.07;8.90;;;;;;;19.09;68.26;100228.84;31462890;28;20421;-78
2023/10/24 18:26:24;;;;;;;14.00;8.20;;;;;;;19.10;68.10;100262.63;31461269;28;20115;-76
2023/10/24 18:41:27;;;;;;;205.90;62.43;;;;;;;18.90;68.30;100287.97;31438878;28;20053;-77
2023/10/24 18:56:30;;;;;;;18.83;10.97;;;;;;;18.89;66.48;100273.50;31493723;28;20063;-77
2023/10/24 19:11:33;;;;;;;15.37;7.73;;;;;;;18.65;66.20;100278.25;31401991;28;20055;-76
2023/10/24 19:26:38;;;;;;;23.87;13.37;;;;;;;18.41;66.98;100253.50;31416839;28;20055;-77
2023/10/24 19:41:40;;;;;;;26.85;13.82;;;;;;;17.98;67.94;100263.78;31397700;28;20060;-75
2023/10/24 19:56:43;;;;;;;18.30;8.03;;;;;;;18.06;65.61;100262.25;31363662;28;20049;-76
2023/10/24 20:11:46;;;;;;;21.90;9.80;;;;;;;17.70;65.54;100267.91;31411245;28;20053;-75
2023/10/24 20:27:09;;;;;;;20.20;9.73;;;;;;;17.29;66.13;100283.06;31371539;28;20478;-75
2023/10/24 20:42:12;;;;;;;17.70;9.47;;;;;;;17.24;66.21;100243.28;31364740;28;20060;-76
2023/10/24 20:57:17;;;;;;;14.53;8.40;;;;;;;17.32;66.24;100244.47;31374905;28;20061;-74
2023/10/24 21:12:19;;;;;;;20.27;8.30;;;;;;;17.47;66.23;100230.13;31433100;28;20065;-72
2023/10/24 21:27:22;;;;;;;15.77;7.50;;;;;;;17.45;66.26;100240.81;31428977;28;20140;-73
2023/10/24 21:42:24;;;;;;;18.27;7.00;;;;;;;17.34;67.81;100244.78;31440711;28;20109;-75
2023/10/24 21:57:27;;;;;;;12.67;7.07;;;;;;;17.04;70.04;100246.50;31441471;28;20060;-73
2023/10/24 22:12:30;;;;;;;16.43;9.57;;;;;;;16.48;73.16;100252.44;31427487;28;20061;-73
2023/10/24 22:27:35;;;;;;;13.53;7.37;;;;;;;16.74;71.60;100238.47;31439022;28;20045;-73
2023/10/24 22:42:39;;;;;;;13.73;7.37;;;;;;;16.83;70.91;100241.94;31436655;28;20110;-74
2023/10/24 22:57:41;;;;;;;12.87;7.70;;;;;;;16.83;72.54;100263.13;31433142;28;20043;-74
2023/10/24 23:12:45;;;;;;;16.20;8.80;;;;;;;16.33;71.10;100259.69;31427074;28;20109;-74
2023/10/24 23:27:47;;;;;;;17.70;9.20;;;;;;;16.74;70.17;100260.41;31420953;28;20523;-73
2023/10/24 23:42:49;;;;;;;17.33;9.30;;;;;;;16.78;71.31;100237.06;31422039;28;20472;-74
2023/10/24 23:57:52;;;;;;;21.13;9.70;;;;;;;16.44;73.24;100220.91;31427451;28;20520;-73
